sensor_id;sensor_type;location;lat;lon;timestamp;temperature;humidity
12634;DHT22;6382;48.614;8.880;2023-03-31T00:00:57;10.00;99.90
12634;DHT22;6382;48.614;8.880;2023-03-31T00:03:26;8.50;99.90
12634;DHT22;6382;48.614;8.880;2023-03-31T00:05:56;8.50;99.90
12634;DHT22;6382;48.614;8.880;2023-03-31T00:08:24;8.40;99.90
12634;DHT22;6382;48.614;8.880;2023-03-31T00:10:57;8.40;99.90
12634;DHT22;6382;48.614;8.880;2023-03-31T00:13:26;8.40;99.90
12634;DHT22;6382;48.614;8.880;2023-03-31T00:15:56;10.70;99.90
12634;DHT22;6382;48.614;8.880;2023-03-31T00:18:23;8.40;99.90
12634;DHT22;6382;48.614;8.880;2023-03-31T00:20:51;8.40;99.90
12634;DHT22;6382;48.614;8.880;2023-03-31T00:23:18;8.40;99.90
12634;DHT22;6382;48.614;8.880;2023-03-31T00:25:54;8.40;99.90
12634;DHT22;6382;48.614;8.880;2023-03-31T00:28:21;8.40;99.90
12634;DHT22;6382;48.614;8.880;2023-03-31T00:30:48;8.40;99.90
12634;DHT22;6382;48.614;8.880;2023-03-31T00:33:15;8.50;99.90
12634;DHT22;6382;48.614;8.880;2023-03-31T00:35:41;8.40;99.90
12634;DHT22;6382;48.614;8.880;2023-03-31T00:38:08;8.50;99.90
12634;DHT22;6382;48.614;8.880;2023-03-31T00:40:43;8.40;99.90
12634;DHT22;6382;48.614;8.880;2023-03-31T00:43:14;8.40;99.90
12634;DHT22;6382;48.614;8.880;2023-03-31T00:45:47;9.90;99.90
12634;DHT22;6382;48.614;8.880;2023-03-31T00:48:15;9.30;99.90
12634;DHT22;6382;48.614;8.880;2023-03-31T00:50:46;8.50;99.90
12634;DHT22;6382;48.614;8.880;2023-03-31T00:53:15;8.50;99.90
12634;DHT22;6382;48.614;8.880;2023-03-31T00:55:48;8.50;99.90
12634;DHT22;6382;48.614;8.880;2023-03-31T00:58:15;8.50;99.90
12634;DHT22;6382;48.614;8.880;2023-03-31T01:00:48;8.50;99.90
12634;DHT22;6382;48.614;8.880;2023-03-31T01:03:18;8.50;99.90
12634;DHT22;6382;48.614;8.880;2023-03-31T01:05:49;8.90;99.90
12634;DHT22;6382;48.614;8.880;2023-03-31T01:08:18;8.50;99.90
12634;DHT22;6382;48.614;8.880;2023-03-31T01:10:46;8.50;99.90
12634;DHT22;6382;48.614;8.880;2023-03-31T01:13:14;8.60;99.90
12634;DHT22;6382;48.614;8.880;2023-03-31T01:15:42;8.60;99.90
12634;DHT22;6382;48.614;8.880;2023-03-31T01:18:09;8.60;99.90
12634;DHT22;6382;48.614;8.880;2023-03-31T01:23:31;8.50;99.90
12634;DHT22;6382;48.614;8.880;2023-03-31T01:31:20;8.70;99.90
12634;DHT22;6382;48.614;8.880;2023-03-31T01:41:49;8.90;99.90
12634;DHT22;6382;48.614;8.880;2023-03-31T01:46:53;10.50;99.90
12634;DHT22;6382;48.614;8.880;2023-03-31T01:49:40;8.90;99.90
12634;DHT22;6382;48.614;8.880;2023-03-31T01:52:26;8.90;99.90
12634;DHT22;6382;48.614;8.880;2023-03-31T01:54:56;8.90;99.90
12634;DHT22;6382;48.614;8.880;2023-03-31T01:57:30;9.00;99.90
12634;DHT22;6382;48.614;8.880;2023-03-31T02:00:01;11.40;99.90
12634;DHT22;6382;48.614;8.880;2023-03-31T02:02:30;9.00;99.90
12634;DHT22;6382;48.614;8.880;2023-03-31T02:04:58;9.00;99.90
12634;DHT22;6382;48.614;8.880;2023-03-31T02:07:27;9.00;99.90
12634;DHT22;6382;48.614;8.880;2023-03-31T02:09:57;8.90;99.90
12634;DHT22;6382;48.614;8.880;2023-03-31T02:12:25;9.00;99.90
12634;DHT22;6382;48.614;8.880;2023-03-31T02:14:53;9.00;99.90
12634;DHT22;6382;48.614;8.880;2023-03-31T02:17:22;8.90;99.90
12634;DHT22;6382;48.614;8.880;2023-03-31T02:19:56;10.10;99.90
12634;DHT22;6382;48.614;8.880;2023-03-31T02:22:25;8.80;99.90
12634;DHT22;6382;48.614;8.880;2023-03-31T02:24:52;8.90;99.90
12634;DHT22;6382;48.614;8.880;2023-03-31T02:27:21;8.90;99.90
12634;DHT22;6382;48.614;8.880;2023-03-31T02:29:48;8.80;99.90
12634;DHT22;6382;48.614;8.880;2023-03-31T02:34:44;8.80;99.90
12634;DHT22;6382;48.614;8.880;2023-03-31T02:37:11;8.80;99.90
12634;DHT22;6382;48.614;8.880;2023-03-31T02:39:39;8.80;99.90
12634;DHT22;6382;48.614;8.880;2023-03-31T02:42:07;8.80;99.90
12634;DHT22;6382;48.614;8.880;2023-03-31T02:44:34;8.70;99.90
12634;DHT22;6382;48.614;8.880;2023-03-31T02:47:02;10.90;99.90
12634;DHT22;6382;48.614;8.880;2023-03-31T02:49:29;8.70;99.90
12634;DHT22;6382;48.614;8.880;2023-03-31T02:52:00;8.60;99.90
12634;DHT22;6382;48.614;8.880;2023-03-31T02:57:10;8.50;99.90
12634;DHT22;6382;48.614;8.880;2023-03-31T03:07:51;8.40;99.90
12634;DHT22;6382;48.614;8.880;2023-03-31T03:15:31;8.30;99.90
12634;DHT22;6382;48.614;8.880;2023-03-31T03:18:00;11.60;99.90
12634;DHT22;6382;48.614;8.880;2023-03-31T03:20:27;8.20;99.90
12634;DHT22;6382;48.614;8.880;2023-03-31T03:22:54;8.20;99.90
12634;DHT22;6382;48.614;8.880;2023-03-31T03:25:20;8.20;99.90
12634;DHT22;6382;48.614;8.880;2023-03-31T03:27:47;9.90;99.90
12634;DHT22;6382;48.614;8.880;2023-03-31T03:30:13;8.20;99.90
12634;DHT22;6382;48.614;8.880;2023-03-31T03:32:40;8.20;99.90
12634;DHT22;6382;48.614;8.880;2023-03-31T03:35:07;10.10;99.90
12634;DHT22;6382;48.614;8.880;2023-03-31T03:37:34;8.10;99.90
12634;DHT22;6382;48.614;8.880;2023-03-31T03:40:01;9.10;99.90
12634;DHT22;6382;48.614;8.880;2023-03-31T03:42:27;8.00;99.90
12634;DHT22;6382;48.614;8.880;2023-03-31T03:44:54;8.00;99.90
12634;DHT22;6382;48.614;8.880;2023-03-31T03:47:20;8.00;99.90
12634;DHT22;6382;48.614;8.880;2023-03-31T03:49:47;7.90;99.90
12634;DHT22;6382;48.614;8.880;2023-03-31T03:52:15;7.80;99.90
12634;DHT22;6382;48.614;8.880;2023-03-31T03:54:41;9.30;99.90
12634;DHT22;6382;48.614;8.880;2023-03-31T03:57:08;7.70;99.90
12634;DHT22;6382;48.614;8.880;2023-03-31T03:59:35;7.60;99.90
12634;DHT22;6382;48.614;8.880;2023-03-31T04:02:01;7.60;99.90
12634;DHT22;6382;48.614;8.880;2023-03-31T04:04:28;7.50;99.90
12634;DHT22;6382;48.614;8.880;2023-03-31T04:06:55;7.50;99.90
12634;DHT22;6382;48.614;8.880;2023-03-31T04:09:21;10.00;99.90
12634;DHT22;6382;48.614;8.880;2023-03-31T04:11:48;7.60;99.90
12634;DHT22;6382;48.614;8.880;2023-03-31T04:14:14;7.70;99.90
12634;DHT22;6382;48.614;8.880;2023-03-31T04:16:41;7.80;99.90
12634;DHT22;6382;48.614;8.880;2023-03-31T04:19:08;7.90;99.90
12634;DHT22;6382;48.614;8.880;2023-03-31T04:21:36;8.00;99.90
12634;DHT22;6382;48.614;8.880;2023-03-31T04:24:11;8.10;99.90
12634;DHT22;6382;48.614;8.880;2023-03-31T04:26:41;8.10;99.90
12634;DHT22;6382;48.614;8.880;2023-03-31T04:29:09;8.10;99.90
12634;DHT22;6382;48.614;8.880;2023-03-31T04:31:38;8.10;99.90
12634;DHT22;6382;48.614;8.880;2023-03-31T04:34:08;8.10;99.90
12634;DHT22;6382;48.614;8.880;2023-03-31T04:36:43;9.10;99.90
12634;DHT22;6382;48.614;8.880;2023-03-31T04:39:16;7.90;99.90
12634;DHT22;6382;48.614;8.880;2023-03-31T04:41:43;7.80;99.90
12634;DHT22;6382;48.614;8.880;2023-03-31T04:44:10;7.80;99.90
12634;DHT22;6382;48.614;8.880;2023-03-31T04:46:36;10.10;99.90
12634;DHT22;6382;48.614;8.880;2023-03-31T04:49:03;7.80;99.90
12634;DHT22;6382;48.614;8.880;2023-03-31T04:51:31;7.80;99.90
12634;DHT22;6382;48.614;8.880;2023-03-31T04:53:57;9.20;99.90
12634;DHT22;6382;48.614;8.880;2023-03-31T04:56:24;7.80;99.90
12634;DHT22;6382;48.614;8.880;2023-03-31T04:58:52;7.80;99.90
12634;DHT22;6382;48.614;8.880;2023-03-31T05:01:18;7.80;99.90
12634;DHT22;6382;48.614;8.880;2023-03-31T05:03:45;7.90;99.90
12634;DHT22;6382;48.614;8.880;2023-03-31T05:06:16;7.80;99.90
12634;DHT22;6382;48.614;8.880;2023-03-31T05:08:43;7.80;99.90
12634;DHT22;6382;48.614;8.880;2023-03-31T05:11:10;9.40;99.90
12634;DHT22;6382;48.614;8.880;2023-03-31T05:13:37;7.80;99.90
12634;DHT22;6382;48.614;8.880;2023-03-31T05:16:07;7.80;99.90
12634;DHT22;6382;48.614;8.880;2023-03-31T05:18:35;7.80;99.90
12634;DHT22;6382;48.614;8.880;2023-03-31T05:21:12;7.90;99.90
12634;DHT22;6382;48.614;8.880;2023-03-31T05:23:39;7.80;99.90
12634;DHT22;6382;48.614;8.880;2023-03-31T05:26:06;7.90;99.90
12634;DHT22;6382;48.614;8.880;2023-03-31T05:28:34;7.90;99.90
12634;DHT22;6382;48.614;8.880;2023-03-31T05:31:01;10.50;99.90
12634;DHT22;6382;48.614;8.880;2023-03-31T05:33:28;8.00;99.90
12634;DHT22;6382;48.614;8.880;2023-03-31T05:35:55;8.00;99.90
12634;DHT22;6382;48.614;8.880;2023-03-31T05:38:22;7.90;99.90
12634;DHT22;6382;48.614;8.880;2023-03-31T05:40:49;8.00;99.90
12634;DHT22;6382;48.614;8.880;2023-03-31T05:43:15;8.00;99.90
12634;DHT22;6382;48.614;8.880;2023-03-31T05:45:42;8.00;99.90
12634;DHT22;6382;48.614;8.880;2023-03-31T05:48:09;10.10;99.90
12634;DHT22;6382;48.614;8.880;2023-03-31T05:50:35;8.10;99.90
12634;DHT22;6382;48.614;8.880;2023-03-31T05:53:02;8.10;99.90
12634;DHT22;6382;48.614;8.880;2023-03-31T05:55:29;8.10;99.90
12634;DHT22;6382;48.614;8.880;2023-03-31T05:57:59;8.10;99.90
12634;DHT22;6382;48.614;8.880;2023-03-31T06:00:25;8.10;99.90
12634;DHT22;6382;48.614;8.880;2023-03-31T06:02:52;8.10;99.90
12634;DHT22;6382;48.614;8.880;2023-03-31T06:05:19;8.20;99.90
12634;DHT22;6382;48.614;8.880;2023-03-31T06:07:46;10.20;99.90
12634;DHT22;6382;48.614;8.880;2023-03-31T06:10:12;8.20;99.90
12634;DHT22;6382;48.614;8.880;2023-03-31T06:12:39;8.40;99.90
12634;DHT22;6382;48.614;8.880;2023-03-31T06:15:06;8.30;99.90
12634;DHT22;6382;48.614;8.880;2023-03-31T06:17:32;8.20;99.90
12634;DHT22;6382;48.614;8.880;2023-03-31T06:20:01;8.30;99.90
12634;DHT22;6382;48.614;8.880;2023-03-31T06:22:41;8.30;99.90
12634;DHT22;6382;48.614;8.880;2023-03-31T06:25:08;11.40;99.90
12634;DHT22;6382;48.614;8.880;2023-03-31T06:27:34;8.30;99.90
12634;DHT22;6382;48.614;8.880;2023-03-31T06:30:01;8.40;99.90
12634;DHT22;6382;48.614;8.880;2023-03-31T06:32:28;8.40;99.90
12634;DHT22;6382;48.614;8.880;2023-03-31T06:34:54;10.30;99.90
12634;DHT22;6382;48.614;8.880;2023-03-31T06:37:21;11.30;99.90
12634;DHT22;6382;48.614;8.880;2023-03-31T06:39:47;8.30;99.90
12634;DHT22;6382;48.614;8.880;2023-03-31T06:42:14;8.30;99.90
12634;DHT22;6382;48.614;8.880;2023-03-31T06:44:41;8.30;99.90
12634;DHT22;6382;48.614;8.880;2023-03-31T06:47:07;8.30;99.90
12634;DHT22;6382;48.614;8.880;2023-03-31T06:49:34;8.30;99.90
12634;DHT22;6382;48.614;8.880;2023-03-31T06:52:01;8.30;99.90
12634;DHT22;6382;48.614;8.880;2023-03-31T06:54:29;8.30;99.90
12634;DHT22;6382;48.614;8.880;2023-03-31T06:56:56;10.80;99.90
12634;DHT22;6382;48.614;8.880;2023-03-31T06:59:22;8.30;99.90
12634;DHT22;6382;48.614;8.880;2023-03-31T07:01:49;8.30;99.90
12634;DHT22;6382;48.614;8.880;2023-03-31T07:04:16;8.30;99.90
12634;DHT22;6382;48.614;8.880;2023-03-31T07:06:42;8.40;99.90
12634;DHT22;6382;48.614;8.880;2023-03-31T07:09:09;8.40;99.90
12634;DHT22;6382;48.614;8.880;2023-03-31T07:11:36;8.40;99.90
12634;DHT22;6382;48.614;8.880;2023-03-31T07:14:02;8.40;99.90
12634;DHT22;6382;48.614;8.880;2023-03-31T07:16:29;8.40;99.90
12634;DHT22;6382;48.614;8.880;2023-03-31T07:18:56;8.50;99.90
12634;DHT22;6382;48.614;8.880;2023-03-31T07:21:25;8.40;99.90
12634;DHT22;6382;48.614;8.880;2023-03-31T07:23:51;8.40;99.90
12634;DHT22;6382;48.614;8.880;2023-03-31T07:26:18;8.40;99.90
12634;DHT22;6382;48.614;8.880;2023-03-31T07:28:45;8.40;99.90
12634;DHT22;6382;48.614;8.880;2023-03-31T07:31:12;8.50;99.90
12634;DHT22;6382;48.614;8.880;2023-03-31T07:33:39;8.80;99.90
12634;DHT22;6382;48.614;8.880;2023-03-31T07:36:06;8.70;99.90
12634;DHT22;6382;48.614;8.880;2023-03-31T07:38:39;8.60;99.90
12634;DHT22;6382;48.614;8.880;2023-03-31T07:41:10;8.80;99.90
12634;DHT22;6382;48.614;8.880;2023-03-31T07:43:37;8.80;99.90
12634;DHT22;6382;48.614;8.880;2023-03-31T07:46:04;8.70;99.90
12634;DHT22;6382;48.614;8.880;2023-03-31T07:48:31;8.70;99.90
12634;DHT22;6382;48.614;8.880;2023-03-31T07:50:59;8.80;99.90
12634;DHT22;6382;48.614;8.880;2023-03-31T07:53:25;8.80;99.90
12634;DHT22;6382;48.614;8.880;2023-03-31T07:55:52;8.80;99.90
12634;DHT22;6382;48.614;8.880;2023-03-31T07:58:19;8.90;99.90
12634;DHT22;6382;48.614;8.880;2023-03-31T08:00:45;11.30;99.90
12634;DHT22;6382;48.614;8.880;2023-03-31T08:03:12;9.10;99.90
12634;DHT22;6382;48.614;8.880;2023-03-31T08:05:39;9.20;99.90
12634;DHT22;6382;48.614;8.880;2023-03-31T08:08:05;7.30;99.90
12634;DHT22;6382;48.614;8.880;2023-03-31T08:10:32;9.40;99.90
12634;DHT22;6382;48.614;8.880;2023-03-31T08:12:59;9.40;99.90
12634;DHT22;6382;48.614;8.880;2023-03-31T08:15:26;9.50;99.90
12634;DHT22;6382;48.614;8.880;2023-03-31T08:17:52;9.60;99.90
12634;DHT22;6382;48.614;8.880;2023-03-31T08:20:19;9.80;99.90
12634;DHT22;6382;48.614;8.880;2023-03-31T08:22:46;9.90;99.90
12634;DHT22;6382;48.614;8.880;2023-03-31T08:25:12;11.10;99.90
12634;DHT22;6382;48.614;8.880;2023-03-31T08:27:39;10.10;99.90
12634;DHT22;6382;48.614;8.880;2023-03-31T08:30:07;11.90;99.90
12634;DHT22;6382;48.614;8.880;2023-03-31T08:32:34;10.40;99.90
12634;DHT22;6382;48.614;8.880;2023-03-31T08:35:02;10.50;99.90
12634;DHT22;6382;48.614;8.880;2023-03-31T08:37:28;10.60;99.90
12634;DHT22;6382;48.614;8.880;2023-03-31T08:39:55;12.00;99.90
12634;DHT22;6382;48.614;8.880;2023-03-31T08:42:34;12.50;99.90
12634;DHT22;6382;48.614;8.880;2023-03-31T08:45:03;11.10;99.90
12634;DHT22;6382;48.614;8.880;2023-03-31T08:47:32;13.30;99.90
12634;DHT22;6382;48.614;8.880;2023-03-31T08:50:09;11.40;99.90
12634;DHT22;6382;48.614;8.880;2023-03-31T08:52:41;11.30;99.90
12634;DHT22;6382;48.614;8.880;2023-03-31T08:55:11;11.40;99.90
12634;DHT22;6382;48.614;8.880;2023-03-31T09:00:15;11.60;99.90
12634;DHT22;6382;48.614;8.880;2023-03-31T09:02:59;11.70;99.90
12634;DHT22;6382;48.614;8.880;2023-03-31T09:05:45;11.80;99.90
12634;DHT22;6382;48.614;8.880;2023-03-31T09:11:35;11.70;99.90
12634;DHT22;6382;48.614;8.880;2023-03-31T09:16:30;11.90;99.90
12634;DHT22;6382;48.614;8.880;2023-03-31T09:19:01;13.80;99.90
12634;DHT22;6382;48.614;8.880;2023-03-31T09:21:29;12.30;99.90
12634;DHT22;6382;48.614;8.880;2023-03-31T09:26:44;12.30;99.90
12634;DHT22;6382;48.614;8.880;2023-03-31T09:29:16;12.30;99.90
12634;DHT22;6382;48.614;8.880;2023-03-31T09:31:45;12.20;99.90
12634;DHT22;6382;48.614;8.880;2023-03-31T09:34:13;12.20;99.90
12634;DHT22;6382;48.614;8.880;2023-03-31T09:36:41;12.30;99.90
12634;DHT22;6382;48.614;8.880;2023-03-31T09:39:12;12.50;99.90
12634;DHT22;6382;48.614;8.880;2023-03-31T09:41:42;12.70;99.90
12634;DHT22;6382;48.614;8.880;2023-03-31T09:44:21;16.10;99.90
12634;DHT22;6382;48.614;8.880;2023-03-31T09:46:49;12.80;99.90
12634;DHT22;6382;48.614;8.880;2023-03-31T09:49:18;14.10;99.90
12634;DHT22;6382;48.614;8.880;2023-03-31T09:51:47;12.90;99.90
12634;DHT22;6382;48.614;8.880;2023-03-31T09:54:18;12.80;99.90
12634;DHT22;6382;48.614;8.880;2023-03-31T09:59:15;12.90;99.90
12634;DHT22;6382;48.614;8.880;2023-03-31T10:01:43;12.90;99.90
12634;DHT22;6382;48.614;8.880;2023-03-31T10:04:21;16.00;99.90
12634;DHT22;6382;48.614;8.880;2023-03-31T10:06:49;13.00;99.90
12634;DHT22;6382;48.614;8.880;2023-03-31T10:09:18;14.00;99.90
12634;DHT22;6382;48.614;8.880;2023-03-31T10:11:51;13.30;99.90
12634;DHT22;6382;48.614;8.880;2023-03-31T10:14:23;13.40;99.90
12634;DHT22;6382;48.614;8.880;2023-03-31T10:16:52;14.80;99.90
12634;DHT22;6382;48.614;8.880;2023-03-31T10:19:26;16.50;99.90
12634;DHT22;6382;48.614;8.880;2023-03-31T10:21:58;13.50;99.90
12634;DHT22;6382;48.614;8.880;2023-03-31T10:24:25;13.60;99.90
12634;DHT22;6382;48.614;8.880;2023-03-31T10:26:53;13.70;99.90
12634;DHT22;6382;48.614;8.880;2023-03-31T10:29:31;14.40;99.90
12634;DHT22;6382;48.614;8.880;2023-03-31T10:32:08;13.60;99.90
12634;DHT22;6382;48.614;8.880;2023-03-31T10:34:38;13.40;99.90
12634;DHT22;6382;48.614;8.880;2023-03-31T10:37:06;15.80;99.90
12634;DHT22;6382;48.614;8.880;2023-03-31T10:39:33;15.00;99.90
12634;DHT22;6382;48.614;8.880;2023-03-31T10:42:00;15.70;99.90
12634;DHT22;6382;48.614;8.880;2023-03-31T10:47:03;13.60;99.90
12634;DHT22;6382;48.614;8.880;2023-03-31T10:49:33;13.80;99.90
12634;DHT22;6382;48.614;8.880;2023-03-31T10:52:02;14.20;99.90
12634;DHT22;6382;48.614;8.880;2023-03-31T10:54:29;14.10;99.90
12634;DHT22;6382;48.614;8.880;2023-03-31T10:56:56;16.30;99.90
12634;DHT22;6382;48.614;8.880;2023-03-31T11:02:30;14.00;99.90
12634;DHT22;6382;48.614;8.880;2023-03-31T11:10:32;12.70;99.90
12634;DHT22;6382;48.614;8.880;2023-03-31T11:13:18;12.00;99.90
12634;DHT22;6382;48.614;8.880;2023-03-31T11:20:50;9.50;99.90
12634;DHT22;6382;48.614;8.880;2023-03-31T11:28:41;8.60;99.90
12634;DHT22;6382;48.614;8.880;2023-03-31T11:36:24;8.40;99.90
12634;DHT22;6382;48.614;8.880;2023-03-31T11:38:57;11.00;99.90
12634;DHT22;6382;48.614;8.880;2023-03-31T11:41:31;8.60;99.90
12634;DHT22;6382;48.614;8.880;2023-03-31T11:44:00;8.70;99.90
12634;DHT22;6382;48.614;8.880;2023-03-31T11:49:25;8.90;99.90
12634;DHT22;6382;48.614;8.880;2023-03-31T11:52:05;9.20;99.90
12634;DHT22;6382;48.614;8.880;2023-03-31T11:57:26;9.70;99.90
12634;DHT22;6382;48.614;8.880;2023-03-31T11:59:53;12.80;99.90
12634;DHT22;6382;48.614;8.880;2023-03-31T12:02:31;12.00;99.90
12634;DHT22;6382;48.614;8.880;2023-03-31T12:05:02;9.70;99.90
12634;DHT22;6382;48.614;8.880;2023-03-31T12:07:31;9.70;99.90
12634;DHT22;6382;48.614;8.880;2023-03-31T12:10:02;9.90;99.90
12634;DHT22;6382;48.614;8.880;2023-03-31T12:12:39;10.00;99.90
12634;DHT22;6382;48.614;8.880;2023-03-31T12:15:21;10.30;99.90
12634;DHT22;6382;48.614;8.880;2023-03-31T12:17:54;10.40;99.90
12634;DHT22;6382;48.614;8.880;2023-03-31T12:23:20;10.50;99.90
12634;DHT22;6382;48.614;8.880;2023-03-31T12:25:53;10.50;99.90
12634;DHT22;6382;48.614;8.880;2023-03-31T12:28:22;10.60;99.90
12634;DHT22;6382;48.614;8.880;2023-03-31T12:30:53;10.80;99.90
12634;DHT22;6382;48.614;8.880;2023-03-31T12:35:54;14.00;99.90
12634;DHT22;6382;48.614;8.880;2023-03-31T12:38:29;11.00;99.90
12634;DHT22;6382;48.614;8.880;2023-03-31T12:41:09;11.00;99.90
12634;DHT22;6382;48.614;8.880;2023-03-31T12:49:20;11.30;99.90
12634;DHT22;6382;48.614;8.880;2023-03-31T12:54:25;13.20;99.90
12634;DHT22;6382;48.614;8.880;2023-03-31T12:59:34;11.70;99.90
12634;DHT22;6382;48.614;8.880;2023-03-31T13:02:10;11.60;99.90
12634;DHT22;6382;48.614;8.880;2023-03-31T13:04:42;11.80;99.90
12634;DHT22;6382;48.614;8.880;2023-03-31T13:10:48;11.80;99.90
12634;DHT22;6382;48.614;8.880;2023-03-31T13:12:42;14.70;99.90
12634;DHT22;6382;48.614;8.880;2023-03-31T13:15:21;14.80;99.90
12634;DHT22;6382;48.614;8.880;2023-03-31T13:17:59;14.10;99.90
12634;DHT22;6382;48.614;8.880;2023-03-31T13:20:36;11.30;99.90
12634;DHT22;6382;48.614;8.880;2023-03-31T13:23:05;11.10;99.90
12634;DHT22;6382;48.614;8.880;2023-03-31T13:25:34;14.00;99.90
12634;DHT22;6382;48.614;8.880;2023-03-31T13:28:09;10.80;99.90
12634;DHT22;6382;48.614;8.880;2023-03-31T13:33:10;9.70;99.90
12634;DHT22;6382;48.614;8.880;2023-03-31T13:35:42;9.50;99.90
12634;DHT22;6382;48.614;8.880;2023-03-31T13:38:14;12.60;99.90
12634;DHT22;6382;48.614;8.880;2023-03-31T13:43:15;11.60;99.90
12634;DHT22;6382;48.614;8.880;2023-03-31T13:46:06;8.50;99.90
12634;DHT22;6382;48.614;8.880;2023-03-31T13:48:57;8.20;99.90
12634;DHT22;6382;48.614;8.880;2023-03-31T14:07:22;9.10;99.90
12634;DHT22;6382;48.614;8.880;2023-03-31T14:09:52;9.40;99.90
12634;DHT22;6382;48.614;8.880;2023-03-31T14:14:52;9.50;99.90
12634;DHT22;6382;48.614;8.880;2023-03-31T14:17:21;9.30;99.90
12634;DHT22;6382;48.614;8.880;2023-03-31T14:22:25;9.10;99.90
12634;DHT22;6382;48.614;8.880;2023-03-31T14:30:26;9.50;99.90
12634;DHT22;6382;48.614;8.880;2023-03-31T14:35:53;9.80;99.90
12634;DHT22;6382;48.614;8.880;2023-03-31T14:38:21;10.00;99.90
12634;DHT22;6382;48.614;8.880;2023-03-31T14:40:49;13.20;99.90
12634;DHT22;6382;48.614;8.880;2023-03-31T14:43:25;11.90;99.90
12634;DHT22;6382;48.614;8.880;2023-03-31T14:46:11;10.20;99.90
12634;DHT22;6382;48.614;8.880;2023-03-31T14:48:42;10.30;99.90
12634;DHT22;6382;48.614;8.880;2023-03-31T14:51:11;10.40;99.90
12634;DHT22;6382;48.614;8.880;2023-03-31T14:53:39;14.00;99.90
12634;DHT22;6382;48.614;8.880;2023-03-31T14:56:06;13.40;99.90
12634;DHT22;6382;48.614;8.880;2023-03-31T14:58:35;13.00;99.90
12634;DHT22;6382;48.614;8.880;2023-03-31T15:03:35;10.60;99.90
12634;DHT22;6382;48.614;8.880;2023-03-31T15:06:03;10.70;99.90
12634;DHT22;6382;48.614;8.880;2023-03-31T15:08:30;10.70;99.90
12634;DHT22;6382;48.614;8.880;2023-03-31T15:10:58;10.80;99.90
12634;DHT22;6382;48.614;8.880;2023-03-31T15:16:19;11.00;99.90
12634;DHT22;6382;48.614;8.880;2023-03-31T15:18:46;11.00;99.90
12634;DHT22;6382;48.614;8.880;2023-03-31T15:21:20;13.70;99.90
12634;DHT22;6382;48.614;8.880;2023-03-31T15:23:49;11.10;99.90
12634;DHT22;6382;48.614;8.880;2023-03-31T15:26:17;11.00;99.90
12634;DHT22;6382;48.614;8.880;2023-03-31T15:29:04;11.00;99.90
12634;DHT22;6382;48.614;8.880;2023-03-31T15:31:33;10.90;99.90
12634;DHT22;6382;48.614;8.880;2023-03-31T15:34:10;10.80;99.90
12634;DHT22;6382;48.614;8.880;2023-03-31T15:36:37;10.80;99.90
12634;DHT22;6382;48.614;8.880;2023-03-31T15:39:04;10.70;99.90
12634;DHT22;6382;48.614;8.880;2023-03-31T15:41:31;10.60;99.90
12634;DHT22;6382;48.614;8.880;2023-03-31T15:44:03;11.40;99.90
12634;DHT22;6382;48.614;8.880;2023-03-31T15:49:22;10.60;99.90
12634;DHT22;6382;48.614;8.880;2023-03-31T15:51:50;10.60;99.90
12634;DHT22;6382;48.614;8.880;2023-03-31T15:56:55;10.60;99.90
12634;DHT22;6382;48.614;8.880;2023-03-31T15:59:25;10.50;99.90
12634;DHT22;6382;48.614;8.880;2023-03-31T16:02:03;10.40;99.90
12634;DHT22;6382;48.614;8.880;2023-03-31T16:04:31;13.70;99.90
12634;DHT22;6382;48.614;8.880;2023-03-31T16:07:00;10.30;99.90
12634;DHT22;6382;48.614;8.880;2023-03-31T16:09:29;10.20;99.90
12634;DHT22;6382;48.614;8.880;2023-03-31T16:12:04;10.10;99.90
12634;DHT22;6382;48.614;8.880;2023-03-31T16:14:37;10.00;99.90
12634;DHT22;6382;48.614;8.880;2023-03-31T16:17:05;9.80;99.90
12634;DHT22;6382;48.614;8.880;2023-03-31T16:19:41;13.10;99.90
12634;DHT22;6382;48.614;8.880;2023-03-31T16:22:11;9.50;99.90
12634;DHT22;6382;48.614;8.880;2023-03-31T16:24:39;9.30;99.90
12634;DHT22;6382;48.614;8.880;2023-03-31T16:27:06;10.80;99.90
12634;DHT22;6382;48.614;8.880;2023-03-31T16:29:35;9.10;99.90
12634;DHT22;6382;48.614;8.880;2023-03-31T16:32:10;8.90;99.90
12634;DHT22;6382;48.614;8.880;2023-03-31T16:34:50;8.80;99.90
12634;DHT22;6382;48.614;8.880;2023-03-31T16:37:17;8.70;99.90
12634;DHT22;6382;48.614;8.880;2023-03-31T16:39:44;8.70;99.90
12634;DHT22;6382;48.614;8.880;2023-03-31T16:42:11;10.00;99.90
12634;DHT22;6382;48.614;8.880;2023-03-31T16:44:37;8.60;99.90
12634;DHT22;6382;48.614;8.880;2023-03-31T16:47:07;8.60;99.90
12634;DHT22;6382;48.614;8.880;2023-03-31T16:49:33;8.50;99.90
12634;DHT22;6382;48.614;8.880;2023-03-31T16:52:00;8.60;99.90
12634;DHT22;6382;48.614;8.880;2023-03-31T16:54:27;8.60;99.90
12634;DHT22;6382;48.614;8.880;2023-03-31T16:56:54;8.60;99.90
12634;DHT22;6382;48.614;8.880;2023-03-31T16:59:21;11.60;99.90
12634;DHT22;6382;48.614;8.880;2023-03-31T17:01:49;8.60;99.90
12634;DHT22;6382;48.614;8.880;2023-03-31T17:04:16;8.50;99.90
12634;DHT22;6382;48.614;8.880;2023-03-31T17:06:43;8.50;99.90
12634;DHT22;6382;48.614;8.880;2023-03-31T17:09:09;8.40;99.90
12634;DHT22;6382;48.614;8.880;2023-03-31T17:11:36;9.70;99.90
12634;DHT22;6382;48.614;8.880;2023-03-31T17:14:03;8.60;99.90
12634;DHT22;6382;48.614;8.880;2023-03-31T17:16:30;8.20;99.90
12634;DHT22;6382;48.614;8.880;2023-03-31T17:19:17;8.20;99.90
12634;DHT22;6382;48.614;8.880;2023-03-31T17:21:44;8.20;99.90
12634;DHT22;6382;48.614;8.880;2023-03-31T17:24:11;10.80;99.90
12634;DHT22;6382;48.614;8.880;2023-03-31T17:26:38;10.60;99.90
12634;DHT22;6382;48.614;8.880;2023-03-31T17:29:05;8.20;99.90
12634;DHT22;6382;48.614;8.880;2023-03-31T17:31:32;8.10;99.90
12634;DHT22;6382;48.614;8.880;2023-03-31T17:33:59;8.10;99.90
12634;DHT22;6382;48.614;8.880;2023-03-31T17:36:27;7.60;99.90
12634;DHT22;6382;48.614;8.880;2023-03-31T17:38:54;8.10;99.90
12634;DHT22;6382;48.614;8.880;2023-03-31T17:41:21;8.10;99.90
12634;DHT22;6382;48.614;8.880;2023-03-31T17:43:47;8.10;99.90
12634;DHT22;6382;48.614;8.880;2023-03-31T17:46:15;8.00;99.90
12634;DHT22;6382;48.614;8.880;2023-03-31T17:48:43;9.80;99.90
12634;DHT22;6382;48.614;8.880;2023-03-31T17:51:14;9.50;99.90
12634;DHT22;6382;48.614;8.880;2023-03-31T17:53:42;11.30;99.90
12634;DHT22;6382;48.614;8.880;2023-03-31T17:56:11;8.00;99.90
12634;DHT22;6382;48.614;8.880;2023-03-31T17:58:38;10.00;99.90
12634;DHT22;6382;48.614;8.880;2023-03-31T18:01:06;9.90;99.90
12634;DHT22;6382;48.614;8.880;2023-03-31T18:03:33;8.00;99.90
12634;DHT22;6382;48.614;8.880;2023-03-31T18:06:04;10.40;99.90
12634;DHT22;6382;48.614;8.880;2023-03-31T18:08:32;8.40;99.90
12634;DHT22;6382;48.614;8.880;2023-03-31T18:11:00;9.80;99.90
12634;DHT22;6382;48.614;8.880;2023-03-31T18:13:28;8.00;99.90
12634;DHT22;6382;48.614;8.880;2023-03-31T18:15:56;8.00;99.90
12634;DHT22;6382;48.614;8.880;2023-03-31T18:18:23;8.00;99.90
12634;DHT22;6382;48.614;8.880;2023-03-31T18:20:54;8.00;99.90
12634;DHT22;6382;48.614;8.880;2023-03-31T18:23:21;7.90;99.90
12634;DHT22;6382;48.614;8.880;2023-03-31T18:25:48;7.90;99.90
12634;DHT22;6382;48.614;8.880;2023-03-31T18:28:15;7.90;99.90
12634;DHT22;6382;48.614;8.880;2023-03-31T18:30:42;7.90;99.90
12634;DHT22;6382;48.614;8.880;2023-03-31T18:33:09;7.90;99.90
12634;DHT22;6382;48.614;8.880;2023-03-31T18:35:36;7.90;99.90